Nearby METAR Reports

 

EBAW - Antwerpen, Belgium
Distance from station: NW 22km
Updated: 2024-02-24 20:20
Clear
Clear
 Wind from SSE
Wind: SSE 15 km/h
Temperature: 6°C
Wind Chill: 3°C
Dew Point: 1°C
Humidity: 71%
Barometer: 1000 hPa
Summary: Clear
Visibility: greater than 10 km
2024/02/24 19:20 EBAW 241920Z 15008KT CAVOK 06/01 Q1000 NOSIG
EBBR - Brussel, Belgium
Distance from station: SW 24km
Updated: 2024-02-24 20:20
Clear
Clear
 Wind from S
Wind: S 20 km/h
Temperature: 6°C
Wind Chill: 2°C
Dew Point: 1°C
Humidity: 71%
Barometer: 1000 hPa
Summary: Clear
Visibility: greater than 10 km
2024/02/24 19:20 EBBR 241920Z 17011KT CAVOK 06/01 Q1000 NOSIG
 
EBDT - Schaffen, Belgium
Distance from station: ESE 26km
Updated: 2024-02-24 20:25
Mostly cloudy
Mostly cloudy
 Wind from S
Wind: S 17 km/h
Temperature: 6°C
Wind Chill: 3°C
Dew Point: 2°C
Humidity: 76%
Barometer: 1001 hPa
Clouds: Mostly cloudy
Visibility: 10 km
Cloud details: Mostly cloudy 3353 m
Mostly cloudy 5182 m
2024/02/24 19:25 EBDT 241925Z AUTO 18009KT 9999 BKN110/// BKN170/// 06/02 Q1001 BLU
EBBE - Beauvechain, Belgium
Distance from station: S 36km
Updated: 2024-02-24 20:25
Mostly cloudy
Mostly cloudy
 Wind from S
Wind: S 19 km/h
Temperature: 6°C
Wind Chill: 3°C
Dew Point: 1°C
Humidity: 71%
Barometer: 1001 hPa
Clouds: Mostly cloudy
Visibility: 10 km
Cloud details: Mostly cloudy 1829 m
2024/02/24 19:25 EBBE 241925Z AUTO 17010KT 9999 BKN060/// 06/01 Q1001 BLU
 
EHWO - Woensdrecht Rnla, Netherlands
Distance from station: NNW 50km
Updated: 2024-02-24 20:25
Overcast
Overcast
 Wind from S
Wind: S 13 km/h
Temperature: 7°C
Wind Chill: 5°C
Dew Point: 2°C
Humidity: 71%
Barometer: 999 hPa
Clouds: Overcast
Visibility: 10 km
Cloud details: Overcast 1097 m
2024/02/24 19:25 EHWO 241925Z AUTO 18007KT 130V240 9999 OVC036 07/02 Q0999 BLU
EBBL - Kleine-Brogel, Belgium
Distance from station: ENE 54km
Updated: 2024-02-24 20:25
Mostly cloudy
Mostly cloudy
 Wind from S
Wind: S 7 km/h
Temperature: 5°C
Wind Chill: 3°C
Dew Point: 2°C
Humidity: 81%
Barometer: 1001 hPa
Clouds: Mostly cloudy
Visibility: 10 km
Cloud details: Mostly cloudy 3048 m
Mostly cloudy 6401 m
2024/02/24 19:25 EBBL 241925Z AUTO 17004KT 9999 BKN100/// BKN210/// 05/02 Q1001 BLU
 
EHGR - Gilze-Rijen Rnla, Netherlands
Distance from station: NNE 57km
Updated: 2024-02-24 20:25
Overcast
Overcast
 Wind from SSE
Wind: SSE 15 km/h
Temperature: 6°C
Wind Chill: 3°C
Dew Point: 2°C
Humidity: 76%
Barometer: 1000 hPa
Clouds: Overcast
Visibility: 10 km
Cloud details: Partly cloudy 1524 m
Overcast 1707 m
2024/02/24 19:25 EHGR 241925Z AUTO 16008KT 120V190 9999 SCT050 OVC056 06/02 Q1000 BLU
EHEH - Eindhoven Rnlafb, Netherlands
Distance from station: NE 63km
Updated: 2024-02-24 20:25
Overcast
Overcast
 Wind from SSE
Wind: SSE 15 km/h
Temperature: 6°C
Wind Chill: 3°C
Dew Point: 2°C
Humidity: 76%
Barometer: 1001 hPa
Clouds: Overcast
Visibility: 10 km
Cloud details: Partly cloudy 1890 m
Overcast 3962 m
2024/02/24 19:25 EHEH 241925Z AUTO 15008KT 120V210 9999 SCT062 OVC130 06/02 Q1001 BLU NOSIG
 
EBCI - Charleroi, Belgium
Distance from station: SSW 70km
Updated: 2024-02-24 20:20
Light rain, Mostly cloudy
Light rain, Mostly cloudy
 Wind from S
Wind: S 22 km/h
Temperature: 5°C
Wind Chill: 1°C
Dew Point: 0°C
Humidity: 70%
Barometer: 1001 hPa
Summary: Light rain
Clouds: Mostly cloudy
Visibility: 10 km
Cloud details: Partly cloudy 762 m
Mostly cloudy 914 m
2024/02/24 19:20 EBCI 241920Z 18012KT 9999 -RA SCT025 BKN030 05/00 Q1001 TEMPO 4000 SHRA BKN015
EBLG - Bierset, Belgium
Distance from station: SE 72km
Updated: 2024-02-24 20:20
Clear
Clear
 Wind from S
Wind: S 22 km/h
Temperature: 5°C
Wind Chill: 1°C
Dew Point: 1°C
Humidity: 76%
Barometer: 1002 hPa
Summary: Clear
Visibility: greater than 10 km
2024/02/24 19:20 EBLG 241920Z 18012KT CAVOK 05/01 Q1002 NOSIG
Benelux Weer Netwerk cwop awekas hwa wcloud pwsweather wow wow